createdAt,value
2022-08-26T00:00:00.624Z,22.6
2022-08-26T00:03:00.642Z,22.6
2022-08-26T00:06:00.624Z,22.6
2022-08-26T00:09:00.680Z,22.6
2022-08-26T00:12:00.648Z,22.6
2022-08-26T00:15:00.683Z,22.6
2022-08-26T00:18:00.630Z,22.6
2022-08-26T00:21:00.588Z,22.6
2022-08-26T00:24:00.625Z,22.6
2022-08-26T00:27:00.607Z,22.6
2022-08-26T00:30:00.604Z,22.6
2022-08-26T00:33:00.761Z,22.6
2022-08-26T00:36:00.605Z,22.6
2022-08-26T00:39:00.644Z,22.4
2022-08-26T00:42:00.654Z,22.4
2022-08-26T00:45:00.679Z,22.4
2022-08-26T00:48:00.662Z,22.2
2022-08-26T00:51:00.619Z,22.2
2022-08-26T00:54:00.607Z,22.2
2022-08-26T00:57:00.638Z,22.2
2022-08-26T01:00:00.600Z,22.2
2022-08-26T01:03:00.740Z,22.2
2022-08-26T01:06:00.643Z,22.2
2022-08-26T01:09:00.616Z,22.2
2022-08-26T01:12:00.708Z,22.2
2022-08-26T01:15:00.649Z,22.2
2022-08-26T01:18:00.652Z,22.2
2022-08-26T01:21:00.607Z,22.2
2022-08-26T01:24:00.678Z,21.8
2022-08-26T01:27:00.664Z,21.8
2022-08-26T01:30:00.639Z,21.8
2022-08-26T01:33:00.678Z,21.8
2022-08-26T01:36:00.646Z,21.8
2022-08-26T01:39:00.680Z,21.8
2022-08-26T01:42:03.443Z,21.7
2022-08-26T01:45:00.620Z,21.7
2022-08-26T01:48:00.591Z,21.7
2022-08-26T01:51:00.637Z,21.7
2022-08-26T01:54:00.644Z,21.7
2022-08-26T01:57:00.637Z,21.7
2022-08-26T02:00:00.664Z,21.7
2022-08-26T02:03:00.778Z,21.7
2022-08-26T02:06:00.663Z,21.7
2022-08-26T02:09:00.615Z,21.7
2022-08-26T02:12:00.728Z,21.7
2022-08-26T02:15:00.646Z,21.3
2022-08-26T02:18:00.644Z,21.3
2022-08-26T02:21:00.590Z,21.3
2022-08-26T02:24:00.607Z,21.3
2022-08-26T02:27:00.626Z,21.3
2022-08-26T02:30:00.635Z,21.3
2022-08-26T02:33:00.677Z,21.3
2022-08-26T02:36:00.669Z,21.3
2022-08-26T02:39:00.662Z,21
2022-08-26T02:42:00.635Z,21
2022-08-26T02:45:00.586Z,21
2022-08-26T02:48:00.632Z,21
2022-08-26T02:51:00.608Z,21
2022-08-26T02:54:00.624Z,21
2022-08-26T02:57:00.666Z,21
2022-08-26T03:00:00.700Z,20.8
2022-08-26T03:03:00.716Z,20.8
2022-08-26T03:06:00.667Z,20.8
2022-08-26T03:09:00.638Z,20.8
2022-08-26T03:12:00.629Z,20.8
2022-08-26T03:15:00.624Z,20.8
2022-08-26T03:18:00.630Z,20.8
2022-08-26T03:21:00.595Z,20.8
2022-08-26T03:24:00.678Z,20.8
2022-08-26T03:27:00.641Z,20.8
2022-08-26T03:30:00.664Z,20.8
2022-08-26T03:33:00.608Z,20.6
2022-08-26T03:36:00.575Z,20.6
2022-08-26T03:39:00.615Z,20.6
2022-08-26T03:42:00.621Z,20.6
2022-08-26T03:45:00.622Z,20.6
2022-08-26T03:48:00.643Z,20.6
2022-08-26T03:51:00.615Z,20.6
2022-08-26T03:54:00.662Z,20.6
2022-08-26T03:57:00.613Z,20.6
2022-08-26T04:00:00.679Z,20.6
2022-08-26T04:03:00.700Z,20.6
2022-08-26T04:06:00.597Z,20.6
2022-08-26T04:09:00.620Z,20.6
2022-08-26T04:12:00.648Z,20.6
2022-08-26T04:15:00.602Z,20.6
2022-08-26T04:18:00.625Z,20.6
2022-08-26T04:21:00.641Z,20.6
2022-08-26T04:24:00.662Z,20.6
2022-08-26T04:27:00.702Z,20.4
2022-08-26T04:30:00.703Z,20.4
2022-08-26T04:33:00.620Z,20.4
2022-08-26T04:36:00.656Z,20.4
2022-08-26T04:39:00.602Z,20.4
2022-08-26T04:42:01.730Z,20.4
2022-08-26T04:45:00.918Z,20.4
2022-08-26T04:48:00.638Z,20.4
2022-08-26T04:51:00.600Z,20.4
2022-08-26T04:54:00.655Z,20.4
2022-08-26T04:57:00.622Z,20.4
2022-08-26T05:00:00.734Z,20.4
2022-08-26T05:03:00.706Z,20.4
2022-08-26T05:06:00.641Z,20.4
2022-08-26T05:09:00.686Z,20.4
2022-08-26T05:12:00.681Z,20.4
2022-08-26T05:15:01.270Z,20.4
2022-08-26T05:18:00.745Z,20.4
2022-08-26T05:21:00.665Z,20.4
2022-08-26T05:24:00.670Z,20.2
2022-08-26T05:27:00.667Z,20.2
2022-08-26T05:30:00.828Z,20.2
2022-08-26T05:33:00.651Z,20.2
2022-08-26T05:36:00.663Z,20.2
2022-08-26T05:39:00.818Z,20.2
2022-08-26T05:42:00.643Z,20.2
2022-08-26T05:45:00.712Z,20.2
2022-08-26T05:48:00.696Z,20.2
2022-08-26T05:51:00.708Z,20.2
2022-08-26T05:54:00.702Z,20.2
2022-08-26T05:57:00.689Z,20.2
2022-08-26T06:00:00.859Z,20.2
2022-08-26T06:03:00.926Z,20.2
2022-08-26T06:06:00.658Z,20.2
2022-08-26T06:09:00.641Z,20.2
2022-08-26T06:12:00.699Z,21.1
2022-08-26T06:15:00.663Z,21.1
2022-08-26T06:18:00.667Z,21.1
2022-08-26T06:21:00.638Z,21.1
2022-08-26T06:24:00.677Z,21.3
2022-08-26T06:27:00.630Z,21.3
2022-08-26T06:30:00.761Z,21.6
2022-08-26T06:33:00.661Z,21.6
2022-08-26T06:36:00.658Z,21.6
2022-08-26T06:39:00.624Z,21.6
2022-08-26T06:42:00.695Z,21.6
2022-08-26T06:45:00.660Z,21.6
2022-08-26T06:48:01.331Z,22.1
2022-08-26T06:51:00.636Z,22.1
2022-08-26T06:54:00.635Z,22.1
2022-08-26T06:57:00.681Z,22.1
2022-08-26T07:00:00.758Z,22.1
2022-08-26T07:03:00.734Z,22.6
2022-08-26T07:06:00.694Z,22.6
2022-08-26T07:09:00.611Z,22.6
2022-08-26T07:12:00.642Z,23.1
2022-08-26T07:15:00.662Z,23.1
2022-08-26T07:18:00.679Z,23.4
2022-08-26T07:21:00.643Z,23.4
2022-08-26T07:24:01.574Z,23.6
2022-08-26T07:27:00.673Z,23.6
2022-08-26T07:30:00.963Z,23.6
2022-08-26T07:33:01.350Z,24.1
2022-08-26T07:36:01.770Z,24.1
2022-08-26T07:39:01.646Z,24.1
2022-08-26T07:42:01.672Z,24.1
2022-08-26T07:45:00.700Z,24.6
2022-08-26T07:48:04.093Z,24.6
2022-08-26T07:51:00.744Z,24.6
2022-08-26T07:57:00.666Z,24.6
2022-08-26T08:00:00.713Z,24.6
2022-08-26T08:03:00.737Z,24.6
2022-08-26T08:06:00.653Z,25.1
2022-08-26T08:09:00.733Z,25.1
2022-08-26T08:12:00.706Z,25.1
2022-08-26T08:15:00.652Z,25.4
2022-08-26T08:18:01.136Z,25.4
2022-08-26T08:21:23.502Z,25.4
2022-08-26T08:24:00.661Z,25.7
2022-08-26T08:27:00.662Z,25.7
2022-08-26T08:30:00.713Z,25.7
2022-08-26T08:33:00.662Z,25.7
2022-08-26T08:36:00.724Z,25.7
2022-08-26T08:39:00.647Z,25.7
2022-08-26T08:42:00.644Z,25.7
2022-08-26T08:45:00.669Z,25.7
2022-08-26T08:48:00.707Z,26.2
2022-08-26T08:51:00.687Z,26.2
2022-08-26T08:54:00.697Z,26.2
2022-08-26T08:57:00.693Z,26.2
2022-08-26T09:00:00.725Z,26.2
2022-08-26T09:03:00.653Z,26.2
2022-08-26T09:06:00.673Z,26.2
2022-08-26T09:09:00.737Z,26.4
2022-08-26T09:12:00.675Z,26.4
2022-08-26T09:15:00.657Z,26.4
2022-08-26T09:18:00.679Z,26.4
2022-08-26T09:21:00.626Z,26.4
2022-08-26T09:24:00.701Z,26.4
2022-08-26T09:27:00.719Z,26.4
2022-08-26T09:30:00.707Z,26.4
2022-08-26T09:33:00.646Z,26.4
2022-08-26T09:36:00.756Z,26.4
2022-08-26T09:39:00.615Z,26.4
2022-08-26T09:42:00.737Z,26.4
2022-08-26T09:45:00.623Z,26.4
2022-08-26T09:48:01.618Z,26.6
2022-08-26T09:51:00.664Z,26.6
2022-08-26T09:54:00.689Z,26.6
2022-08-26T09:57:00.633Z,26.6
2022-08-26T10:00:00.729Z,26.6
2022-08-26T10:03:00.666Z,26.6
2022-08-26T10:06:00.736Z,26.7
2022-08-26T10:09:04.584Z,26.7
2022-08-26T10:12:00.684Z,26.7
2022-08-26T10:15:00.707Z,26.7
2022-08-26T10:18:00.744Z,26.8
2022-08-26T10:21:00.674Z,26.8
2022-08-26T10:24:00.688Z,26.8
2022-08-26T10:27:00.667Z,26.8
2022-08-26T10:30:00.754Z,26.8
2022-08-26T10:33:00.681Z,26.8
2022-08-26T10:36:00.641Z,26.8
2022-08-26T10:39:00.693Z,26.8
2022-08-26T10:42:00.694Z,26.8
2022-08-26T10:45:00.678Z,26.8
2022-08-26T10:48:00.776Z,27.1
2022-08-26T10:51:00.722Z,27.1
2022-08-26T10:54:00.675Z,27.1
2022-08-26T10:57:00.668Z,27.1
2022-08-26T11:00:00.744Z,27.2
2022-08-26T11:03:00.640Z,27.2
2022-08-26T11:06:00.681Z,27.2
2022-08-26T11:12:06.929Z,27.2
2022-08-26T11:15:00.686Z,27.2
2022-08-26T11:18:00.687Z,27.2
2022-08-26T11:21:00.653Z,27.2
2022-08-26T11:24:00.684Z,27.5
2022-08-26T11:27:00.646Z,27.5
2022-08-26T11:30:00.733Z,27.5
2022-08-26T11:33:00.630Z,27.5
2022-08-26T11:36:00.675Z,27.8
2022-08-26T11:39:00.690Z,27.8
2022-08-26T11:42:00.668Z,27.8
2022-08-26T11:45:04.881Z,27.8
2022-08-26T11:48:00.704Z,27.8
2022-08-26T11:51:00.733Z,27.8
2022-08-26T11:54:00.725Z,27.8
2022-08-26T11:57:07.406Z,27.8
2022-08-26T12:00:00.728Z,28.2
2022-08-26T12:03:00.688Z,28.2
2022-08-26T12:06:00.668Z,28.4
2022-08-26T12:09:00.730Z,28.4
2022-08-26T12:12:00.745Z,28.4
2022-08-26T12:15:00.700Z,28.4
2022-08-26T12:18:00.638Z,28.4
2022-08-26T12:21:00.706Z,28.4
2022-08-26T12:24:00.627Z,28.4
2022-08-26T12:27:00.701Z,28.4
2022-08-26T12:30:00.701Z,28.9
2022-08-26T12:33:00.704Z,28.9
2022-08-26T12:36:00.631Z,28.9
2022-08-26T12:39:00.669Z,28.9
2022-08-26T12:42:00.649Z,28.9
2022-08-26T12:45:00.685Z,28.9
2022-08-26T12:48:00.651Z,28.9
2022-08-26T12:51:00.873Z,28.9
2022-08-26T12:54:00.670Z,28.9
2022-08-26T12:57:00.652Z,29
2022-08-26T13:00:00.794Z,29
2022-08-26T13:03:00.646Z,29
2022-08-26T13:06:00.689Z,29
2022-08-26T13:09:00.645Z,29
2022-08-26T13:12:02.402Z,29
2022-08-26T13:15:00.651Z,29
2022-08-26T13:18:00.652Z,29
2022-08-26T13:21:00.645Z,29
2022-08-26T13:24:00.692Z,29
2022-08-26T13:27:00.634Z,29
2022-08-26T13:30:00.695Z,29
2022-08-26T13:33:00.690Z,29
2022-08-26T13:36:00.676Z,29
2022-08-26T13:39:00.642Z,29
2022-08-26T13:42:00.672Z,29
2022-08-26T13:45:00.662Z,29
2022-08-26T13:48:00.664Z,29
2022-08-26T13:51:00.668Z,29
2022-08-26T13:54:00.771Z,28.8
2022-08-26T13:57:00.709Z,28.8
2022-08-26T14:00:00.644Z,28.8
2022-08-26T14:03:00.783Z,28.8
2022-08-26T14:06:00.683Z,28.8
2022-08-26T14:09:00.680Z,28.8
2022-08-26T14:12:02.933Z,28.8
2022-08-26T14:15:00.680Z,28.8
2022-08-26T14:18:00.670Z,28.8
2022-08-26T14:21:00.663Z,28.8
2022-08-26T14:24:01.300Z,28.8
2022-08-26T14:27:00.639Z,28.8
2022-08-26T14:30:00.690Z,28.8
2022-08-26T14:33:00.673Z,28.8
2022-08-26T14:36:00.631Z,28.8
2022-08-26T14:39:00.687Z,28.8
2022-08-26T14:42:00.641Z,28.8
2022-08-26T14:45:00.648Z,29
2022-08-26T14:48:00.666Z,29
2022-08-26T14:51:00.619Z,29
2022-08-26T14:54:00.651Z,29.1
2022-08-26T14:57:00.654Z,29.1
2022-08-26T15:00:00.762Z,29.1
2022-08-26T15:03:01.007Z,29.1
2022-08-26T15:06:00.645Z,29.1
2022-08-26T15:09:00.642Z,29.1
2022-08-26T15:12:00.701Z,29.1
2022-08-26T15:15:00.678Z,29.1
2022-08-26T15:18:00.730Z,29.1
2022-08-26T15:21:00.635Z,29.1
2022-08-26T15:24:00.679Z,29.1
2022-08-26T15:27:00.634Z,29.3
2022-08-26T15:30:00.693Z,29.2
2022-08-26T15:33:00.647Z,29.2
2022-08-26T15:36:00.629Z,29.2
2022-08-26T15:39:00.672Z,29.2
2022-08-26T15:42:00.677Z,28.6
2022-08-26T15:45:00.700Z,28.6
2022-08-26T15:48:11.407Z,28.6
2022-08-26T15:51:00.677Z,28.6
2022-08-26T15:54:00.640Z,28.6
2022-08-26T15:57:00.644Z,28.1
2022-08-26T16:00:00.651Z,28.1
2022-08-26T16:03:00.703Z,28.1
2022-08-26T16:06:00.726Z,28.1
2022-08-26T16:09:00.634Z,28.1
2022-08-26T16:12:00.695Z,27.8
2022-08-26T16:15:00.649Z,27.8
2022-08-26T16:18:00.716Z,27.6
2022-08-26T16:21:14.165Z,27.5
2022-08-26T16:24:00.677Z,27.5
2022-08-26T16:27:00.609Z,27.5
2022-08-26T16:30:00.787Z,27
2022-08-26T16:33:00.654Z,27
2022-08-26T16:36:00.730Z,27
2022-08-26T16:39:00.671Z,26.9
2022-08-26T16:42:00.667Z,26.9
2022-08-26T16:45:00.664Z,26.9
2022-08-26T16:48:00.647Z,26.9
2022-08-26T16:51:00.825Z,26.6
2022-08-26T16:54:00.658Z,26.6
2022-08-26T16:57:00.662Z,26.5
2022-08-26T17:00:00.668Z,26.4
2022-08-26T17:03:00.804Z,26.4
2022-08-26T17:06:00.671Z,26.4
2022-08-26T17:09:00.694Z,26.4
2022-08-26T17:12:00.623Z,26.2
2022-08-26T17:15:00.669Z,26.2
2022-08-26T17:18:01.771Z,26.2
2022-08-26T17:21:00.652Z,26.2
2022-08-26T17:24:00.676Z,26.2
2022-08-26T17:27:00.644Z,26.2
2022-08-26T17:30:00.723Z,26.2
2022-08-26T17:33:00.640Z,26.2
2022-08-26T17:36:00.777Z,25.8
2022-08-26T17:39:00.677Z,25.8
2022-08-26T17:42:00.588Z,25.7
2022-08-26T17:45:00.693Z,25.7
2022-08-26T17:48:00.727Z,25.7
2022-08-26T17:51:00.665Z,25.7
2022-08-26T17:54:00.670Z,25.7
2022-08-26T17:57:00.672Z,25.7
2022-08-26T18:00:00.760Z,25.5
2022-08-26T18:03:00.662Z,25.5
2022-08-26T18:06:00.627Z,25.5
2022-08-26T18:09:00.663Z,25.5
2022-08-26T18:12:00.650Z,25.5
2022-08-26T18:15:00.645Z,25.3
2022-08-26T18:18:00.754Z,25.3
2022-08-26T18:21:02.041Z,25.3
2022-08-26T18:24:00.602Z,25.3
2022-08-26T18:27:00.654Z,25.3
2022-08-26T18:30:00.679Z,25
2022-08-26T18:33:00.619Z,25
2022-08-26T18:36:00.647Z,24.9
2022-08-26T18:39:00.607Z,24.9
2022-08-26T18:42:00.703Z,24.4
2022-08-26T18:45:00.618Z,24.4
2022-08-26T18:48:00.705Z,23.9
2022-08-26T18:51:00.613Z,23.9
2022-08-26T18:54:00.638Z,23.9
2022-08-26T18:57:00.882Z,23.9
2022-08-26T19:00:00.653Z,23.9
2022-08-26T19:03:00.951Z,23.9
2022-08-26T19:06:00.779Z,23.4
2022-08-26T19:09:00.634Z,23.4
2022-08-26T19:12:00.679Z,23.1
2022-08-26T19:15:00.631Z,23.1
2022-08-26T19:18:00.660Z,23.1
2022-08-26T19:21:00.691Z,23.1
2022-08-26T19:24:00.635Z,22.6
2022-08-26T19:27:00.650Z,22.6
2022-08-26T19:30:00.651Z,22.6
2022-08-26T19:33:00.626Z,22.6
2022-08-26T19:36:06.411Z,22.6
2022-08-26T19:39:00.583Z,22.6
2022-08-26T19:42:00.639Z,22.6
2022-08-26T19:45:00.590Z,22.6
2022-08-26T19:48:00.657Z,22.6
2022-08-26T19:51:00.627Z,22.6
2022-08-26T19:54:00.613Z,22.6
2022-08-26T19:57:00.607Z,22.6
2022-08-26T20:00:00.673Z,22.6
2022-08-26T20:03:00.884Z,22.6
2022-08-26T20:06:00.616Z,22.6
2022-08-26T20:09:00.848Z,22.6
2022-08-26T20:12:00.628Z,22.6
2022-08-26T20:15:00.636Z,22.6
2022-08-26T20:18:00.626Z,22.6
2022-08-26T20:21:00.686Z,22.6
2022-08-26T20:24:00.685Z,22.2
2022-08-26T20:27:08.067Z,22.2
2022-08-26T20:30:00.652Z,22.2
2022-08-26T20:33:00.658Z,22.2
2022-08-26T20:36:00.614Z,22.2
2022-08-26T20:39:00.751Z,22.2
2022-08-26T20:42:00.776Z,22.2
2022-08-26T20:45:00.840Z,22.2
2022-08-26T20:48:00.622Z,22.2
2022-08-26T20:51:00.700Z,22.2
2022-08-26T20:54:00.619Z,22.2
2022-08-26T20:57:00.608Z,22.2
2022-08-26T21:00:00.769Z,22.2
2022-08-26T21:03:00.692Z,22.2
2022-08-26T21:06:00.685Z,22.2
2022-08-26T21:09:00.675Z,22.2
2022-08-26T21:12:00.633Z,22.2
2022-08-26T21:15:00.689Z,22.2
2022-08-26T21:18:00.639Z,22.2
2022-08-26T21:21:00.648Z,21.9
2022-08-26T21:24:00.606Z,21.9
2022-08-26T21:27:00.640Z,21.9
2022-08-26T21:30:00.612Z,21.9
2022-08-26T21:33:00.701Z,21.7
2022-08-26T21:36:00.645Z,21.7
2022-08-26T21:39:00.711Z,21.7
2022-08-26T21:42:00.665Z,21.7
2022-08-26T21:45:00.697Z,21.7
2022-08-26T21:48:00.762Z,21.7
2022-08-26T21:51:00.610Z,21.7
2022-08-26T21:54:00.667Z,21.7
2022-08-26T21:57:00.651Z,21.7
2022-08-26T22:00:00.998Z,21.7
2022-08-26T22:03:00.615Z,21.7
2022-08-26T22:06:00.660Z,21.4
2022-08-26T22:09:00.627Z,21.4
2022-08-26T22:12:00.642Z,21.2
2022-08-26T22:15:00.607Z,21.2
2022-08-26T22:18:00.696Z,20.9
2022-08-26T22:21:00.657Z,20.9
2022-08-26T22:24:00.639Z,20.9
2022-08-26T22:27:00.625Z,20.9
2022-08-26T22:30:00.670Z,20.9
2022-08-26T22:33:00.625Z,20.9
2022-08-26T22:36:00.664Z,20.9
2022-08-26T22:39:00.591Z,20.9
2022-08-26T22:42:00.641Z,20.9
2022-08-26T22:45:00.614Z,20.9
2022-08-26T22:48:00.631Z,20.9
2022-08-26T22:51:00.665Z,20.9
2022-08-26T22:54:00.780Z,20.9
2022-08-26T22:57:00.643Z,20.4
2022-08-26T23:00:00.680Z,20.4
2022-08-26T23:03:00.736Z,20.4
2022-08-26T23:06:00.691Z,20.4
2022-08-26T23:09:00.645Z,20.4
2022-08-26T23:12:00.615Z,20.4
2022-08-26T23:15:01.279Z,20.4
2022-08-26T23:18:00.639Z,20.4
2022-08-26T23:21:00.595Z,20.4
2022-08-26T23:24:00.694Z,20.4
2022-08-26T23:27:00.654Z,20.4
2022-08-26T23:30:00.640Z,20.4
2022-08-26T23:33:00.599Z,20.4
2022-08-26T23:36:00.642Z,20.4
2022-08-26T23:39:00.673Z,20.4
2022-08-26T23:42:00.634Z,20.4
2022-08-26T23:45:00.656Z,20.2
2022-08-26T23:48:00.628Z,20.2
2022-08-26T23:51:00.697Z,20.2
2022-08-26T23:54:00.643Z,20.2
2022-08-26T23:57:00.650Z,20.2
